Urb La Nueva Salamanca, Puerto Rico
Current Conditions -  °F | °C
As of 3:50 AM on Saturday 29 Nov 2014 (Local Time) from TJBQ Reporting Station
Clear Clear  
Wind Chill: 72°   Ceiling: Unl
Heat Index: 72°   Visibility: 10mi
Dew Point: 66°   Wind: 6mph
Humidity: 83%   Direction: 120°ESE
Pressure: 29.93"   Gusts: NA
Location:  18.0846°N, 67.0463°W
Report Text: TJBQ 290750Z 12005KT 10SM SKC 22/19 A2993 RMK RWY08 ATIS K
Loading
Personal Weather Stations






























Interactive Weather Map New forecast layout! Learn more

10-Day Weather Forecast

Advertisements
Track Severe Weather on mobile